Wind From: 20-09-2018 10:00 Until: 20:00 warning for: Wind Level: Yellow info button
suomi:
Tuulivaroitus maa-alueille: Lounaistuuli on voimakasta iltapäivällä ja illalla, tuulen nopeus puuskissa 15 m/s.

svenska:
Vindvarning för landområden: På eftermiddagen och kvällen är den sydvästliga vinden kraftigt, i vindbyarna 15 m/s.

english:
Wind warning for land areas: In the afternoon and in the evening, strong winds from southwest may bring strong gusts of 15 m/s. 


Thunder radar more information blitzortung!


Löydät sääaseman tiedot myös:

European Weather Network

Finland Weather Exchange

Weather Underground

AWEKAS



Weather Underground säähistoriasivu

Päivittäin yhteenveto Helmikuu 13, 2017 Yksiköt:  Metriset    Englantilaiset   Molemmat
« Edellinen Päivä
Seuraava Päivä »
Päivittäin Viikoittain Kuukausittain Vuosittain Mukautettu
  Korkea: Matala: Keskiarvo:
Lämpötila: -17.8 °C -17.6 °C -15.7 °C
Kastepiste: -17.8 °C -18.3 °C -17.1 °C
Kosteus: Humidity % 79 % 84 %
Tuulen nopeus: 0 km/h 2.6 km/h 8.9 km/h
Tuulenpuuska: 0 km/h - -
Tuuli:- - WSW
Ilmanpaine: 0 hPa 34554.1 hPa -
Sade: 12.7 mm    
Historical Graphs
 
 
Taulukkotiedot Helmikuu 13, 2017
Aika Lämpötila Kastepiste Ilmanpaine Tuuli Tuulen nopeus Tuulenpuuska Kosteus Sademäärä (tunneittain)
-17.8 °C -17.8 °C 0 hPa Calm     Humidity % 0 mm
00:00 -17.6 °C -18.3 °C 34682.8 hPa SSW 12.9 km/h 41.4 km/h 91 % 0 mm
00:15 -17.6 °C -18.3 °C 34682.8 hPa SSW 10.3 km/h 31.1 km/h 90 % 0 mm
00:30 -17.5 °C -18.3 °C 34682.8 hPa SSW 10.3 km/h 23.3 km/h 90 % 0 mm
00:45 -17.4 °C -18.2 °C 34669.3 hPa SSW 12.9 km/h 31.1 km/h 90 % 0 mm
01:15 -17.2 °C -18.2 °C 34659.1 hPa SSW 10.3 km/h 23.3 km/h 88 % 0 mm
01:30 -17.1 °C -18.1 °C 34645.6 hPa SSW 10.3 km/h 23.3 km/h 87 % 0 mm
01:45 -16.9 °C -18.1 °C 34625.2 hPa SSW 12.9 km/h 38.8 km/h 86 % 0 mm
02:00 -16.8 °C -18.1 °C 34635.4 hPa SSW 7.7 km/h 28.5 km/h 85 % 0 mm
02:15 -16.8 °C -18.1 °C 34635.4 hPa SW 10.3 km/h 31.1 km/h 85 % 0 mm
02:30 -16.8 °C -18 °C 34625.2 hPa SSW 10.3 km/h 23.3 km/h 85 % 0 mm
02:45 -16.8 °C -18.1 °C 34625.2 hPa SSW 7.7 km/h 15.6 km/h 85 % 0 mm
03:00 -16.8 °C -18 °C 34625.2 hPa SSW 10.3 km/h 28.5 km/h 85 % 0 mm
03:15 -16.8 °C -18.1 °C 34611.7 hPa SSW 7.7 km/h 20.8 km/h 85 % 0 mm
03:30 -16.8 °C -18.1 °C 34611.7 hPa SW 10.3 km/h 23.3 km/h 85 % 0 mm
03:45 -16.8 °C -18 °C 34611.7 hPa SW 10.3 km/h 25.9 km/h 86 % 0 mm
04:00 -16.8 °C -17.9 °C 34601.5 hPa WSW 12.9 km/h 33.6 km/h 86 % 0 mm
04:15 -16.7 °C -17.9 °C 34591.4 hPa WSW 12.9 km/h 36.2 km/h 86 % 0 mm
04:30 -16.6 °C -17.8 °C 34611.7 hPa WSW 10.3 km/h 31.1 km/h 86 % 0 mm
04:45 -16.7 °C -17.8 °C 34611.7 hPa WSW 10.3 km/h 36.2 km/h 86 % 0 mm
05:00 -16.7 °C -17.8 °C 34611.7 hPa WSW 10.3 km/h 25.9 km/h 87 % 0 mm
05:15 -16.7 °C -17.7 °C 34601.5 hPa SW 10.3 km/h 23.3 km/h 87 % 0 mm
05:30 -16.7 °C -17.7 °C 34611.7 hPa WSW 10.3 km/h 28.5 km/h 88 % 0 mm
05:45 -16.7 °C -17.7 °C 34611.7 hPa SW 10.3 km/h 31.1 km/h 87 % 0 mm
06:00 -16.7 °C -17.7 °C 34611.7 hPa SW 7.7 km/h 25.9 km/h 88 % 0 mm
06:15 -16.8 °C -17.7 °C 34611.7 hPa WSW 7.7 km/h 20.8 km/h 89 % 0 mm
06:30 -16.8 °C -17.7 °C 34601.5 hPa SW 10.3 km/h 23.3 km/h 89 % 0 mm
06:45 -16.7 °C -17.6 °C 34601.5 hPa SW 10.3 km/h 23.3 km/h 89 % 0 mm
07:15 -16.6 °C -17.4 °C 34601.5 hPa WSW 7.7 km/h 25.9 km/h 90 % 0 mm
07:45 -16.3 °C -17.3 °C 34611.7 hPa WSW 10.3 km/h 25.9 km/h 89 % 0 mm
08:00 -16.3 °C -17.2 °C 34611.7 hPa WSW 10.3 km/h 23.3 km/h 89 % 0 mm
08:15 -16.3 °C -17.2 °C 34611.7 hPa SW 10.3 km/h 33.6 km/h 89 % 0 mm
08:30 -16.3 °C -17.2 °C 34611.7 hPa WSW 10.3 km/h 28.5 km/h 89 % 0 mm
08:45 -16.3 °C -17.2 °C 34611.7 hPa WSW 10.3 km/h 31.1 km/h 89 % 0 mm
09:00 -16.3 °C -17.1 °C 34611.7 hPa WSW 10.3 km/h 36.2 km/h 90 % 0 mm
09:15 -16.2 °C -16.9 °C 34601.5 hPa SW 10.3 km/h 28.5 km/h 90 % 0 mm
09:45 -16.1 °C -16.9 °C 34601.5 hPa SW 7.7 km/h 23.3 km/h 90 % 0 mm
10:00 -15.8 °C -16.7 °C 34601.5 hPa WSW 5.1 km/h 28.5 km/h 89 % 0 mm
10:15 -15.6 °C -16.6 °C 34611.7 hPa WSW 7.7 km/h 20.8 km/h 88 % 0 mm
10:30 -15.5 °C -16.6 °C 34601.5 hPa SW 7.7 km/h 23.3 km/h 87 % 0 mm
10:45 -15.4 °C -16.4 °C 34611.7 hPa SW 7.7 km/h 28.5 km/h 87 % 0 mm
11:00 -15.3 °C -16.4 °C 34601.5 hPa WSW 7.7 km/h 25.9 km/h 86 % 0 mm
11:15 -15.1 °C -16.4 °C 34611.7 hPa SW 10.3 km/h 20.8 km/h 85 % 0 mm
11:30 -14.9 °C -16.3 °C 34611.7 hPa SSW 10.3 km/h 36.2 km/h 85 % 0 mm
11:45 -14.8 °C -16.2 °C 34611.7 hPa SSW 7.7 km/h 23.3 km/h 84 % 7.62 mm
12:00 -14.7 °C -16.2 °C 34611.7 hPa SW 7.7 km/h 23.3 km/h 83 % 7.62 mm
12:15 -14.6 °C -16.2 °C 34601.5 hPa SW 5.1 km/h 18.2 km/h 82 % 7.62 mm
12:30 -14.6 °C -16.2 °C 34601.5 hPa SW 7.7 km/h 23.3 km/h 81 % 7.62 mm
12:45 -14.6 °C -16.3 °C 34601.5 hPa SW 7.7 km/h 23.3 km/h 81 % 0 mm
13:00 -14.6 °C -16.3 °C 34601.5 hPa SW 7.7 km/h 31.1 km/h 81 % 0 mm
13:15 -14.6 °C -16.2 °C 34601.5 hPa WSW 10.3 km/h 59.5 km/h 81 % 0 mm
13:30 -14.6 °C -16.2 °C 34601.5 hPa WSW 10.3 km/h 28.5 km/h 81 % 0 mm
13:45 -14.6 °C -16.2 °C 34601.5 hPa WSW 12.9 km/h 41.4 km/h 81 % 0 mm
14:15 -14.6 °C -16.3 °C 34611.7 hPa WSW 7.7 km/h 28.5 km/h 81 % 7.62 mm
14:30 -14.7 °C -16.3 °C 34601.5 hPa WSW 7.7 km/h 23.3 km/h 81 % 7.62 mm
14:45 -14.7 °C -16.5 °C 34601.5 hPa West 7.7 km/h 23.3 km/h 80 % 7.62 mm
15:00 -14.8 °C -16.5 °C 34601.5 hPa WSW 7.7 km/h 23.3 km/h 81 % 7.62 mm
15:15 -14.9 °C -16.6 °C 34591.4 hPa SW 7.7 km/h 31.1 km/h 81 % 0 mm
15:30 -14.8 °C -16.4 °C 34591.4 hPa WSW 5.1 km/h 20.8 km/h 81 % 0 mm
15:45 -14.5 °C -16.3 °C 34591.4 hPa SW 2.6 km/h 20.8 km/h 79 % 0 mm
16:00 -14.6 °C -16.4 °C 34591.4 hPa SSW 5.1 km/h 18.2 km/h 79 % 0 mm
16:15 -14.7 °C -16.5 °C 34591.4 hPa SW 7.7 km/h 20.8 km/h 79 % 0 mm
16:30 -14.8 °C -16.6 °C 34577.8 hPa SW 5.1 km/h 23.3 km/h 80 % 0 mm
17:00 -15.2 °C -16.7 °C 34577.8 hPa SSW 5.1 km/h 15.6 km/h 82 % 0 mm
17:15 -15.3 °C -16.7 °C 34567.7 hPa SSW 5.1 km/h 15.6 km/h 83 % 0 mm
17:45 -15.3 °C -16.7 °C 34567.7 hPa SW 7.7 km/h 20.8 km/h 84 % 0 mm
18:00 -15.2 °C -16.7 °C 34567.7 hPa SW 7.7 km/h 25.9 km/h 83 % 0 mm
18:15 -15.2 °C -16.7 °C 34554.1 hPa WSW 7.7 km/h 20.8 km/h 83 % 0 mm
18:30 -15.2 °C -16.7 °C 34567.7 hPa WSW 7.7 km/h 25.9 km/h 82 % 0 mm
19:00 -15.1 °C -16.7 °C 34567.7 hPa West 10.3 km/h 33.6 km/h 81 % 0 mm
19:15 -15 °C -16.7 °C 34567.7 hPa West 10.3 km/h 33.6 km/h 81 % 0 mm
19:30 -15.1 °C -16.7 °C 34567.7 hPa West 7.7 km/h 25.9 km/h 81 % 0 mm
19:45 -15.2 °C -16.8 °C 34567.7 hPa West 7.7 km/h 33.6 km/h 82 % 0 mm
20:00 -15.1 °C -16.7 °C 34567.7 hPa WNW 10.3 km/h 36.2 km/h 82 % 0 mm
20:15 -15.1 °C -16.7 °C 34567.7 hPa WNW 7.7 km/h 31.1 km/h 82 % 0 mm
20:30 -15.1 °C -16.7 °C 34577.8 hPa West 10.3 km/h 33.6 km/h 82 % 0 mm
20:45 -15.2 °C -16.7 °C 34567.7 hPa WNW 12.9 km/h 33.6 km/h 82 % 0 mm
21:00 -15.2 °C -16.7 °C 34567.7 hPa West 12.9 km/h 36.2 km/h 82 % 0 mm
21:15 -15.2 °C -16.7 °C 34567.7 hPa West 12.9 km/h 36.2 km/h 83 % 0 mm
21:45 -15.2 °C -16.7 °C 34567.7 hPa WNW 7.7 km/h 18.2 km/h 83 % 0 mm
22:00 -15.2 °C -16.7 °C 34577.8 hPa WNW 10.3 km/h 41.4 km/h 83 % 0 mm
22:15 -15.1 °C -16.7 °C 34577.8 hPa NW 7.7 km/h 23.3 km/h 82 % 0 mm
22:30 -14.9 °C -16.6 °C 34577.8 hPa NW 7.7 km/h 31.1 km/h 82 % 0 mm
22:45 -14.9 °C -16.6 °C 34577.8 hPa NW 10.3 km/h 23.3 km/h 81 % 0 mm
23:15 -15.1 °C -16.6 °C 34591.4 hPa West 2.6 km/h 25.9 km/h 82 % 0 mm
23:30 -14.9 °C -16.6 °C 34591.4 hPa WNW 7.7 km/h 23.3 km/h 81 % 0 mm
23:45 -14.8 °C -16.6 °C 34591.4 hPa NW 7.7 km/h 23.3 km/h 80 % 0 mm
Esan sääasema
Terveisin Weather Underground - 2.75 mb

Alkuperäinen skripti  Jim McMurry - jmcmurry@mwt.net Sovitettu myös templatelle  Wim van der Kuil - Leuven-Template.eu

Laitteet joita käytämme:

Sääasema
Davis VP2

Sääasemaohjelma
Cumulus

Sääaseman tietokone
Asus EeePC

Palveluntarjoaja
Suncomet

Davis VP2

Cumulus

Asus EeePC

Suncomet